Parker, Indiana
Current Conditions -  °F | °C
As of 5:53 AM on Thursday 23 Oct 2014 (Local Time) from KMIE Reporting Station
Haze Haze  
Wind Chill:   Ceiling: Unl
Heat Index:   Visibility: 6mi
Dew Point: -1°   Wind: 0mph
Humidity: 96%   Direction: NA
Pressure: 30.26"   Gusts: NA
Location:  40.2107°N, 85.182°W
Report Text: KMIE 230953Z 00000KT 6SM BR CLR 00/M01 A3026 RMK AO2 SLP246 T00001006 $
Loading
Personal Weather Stations






























Interactive Weather Map
Tropical Storm Tracking
New forecast layout! Learn more

10-Day Weather Forecast

Advertisements
Track Severe Weather on mobile